METAR EPSY 181000Z VRB07KT CAVOK 29/15 Q1014=